Time;durP1;ratioP1;P1;durP2;ratioP2;P2;SDS_P1;SDS_P2;PMS_P1;PMS_P2;Temp;Humidity;BMP_temperature;BMP_pressure;BME280_temperature;BME280_humidity;BME280_pressure;Samples;Min_cycle;Max_cycle;Signal;HPM_P1;HPM_P2
2023/06/04 00:00:47;;;;;;;2.93;1.20;;;16.80;99.90;;;;;;5092576;28;20173;-64
2023/06/04 00:03:12;;;;;;;1.43;1.33;;;16.70;99.90;;;;;;5077832;28;20177;-63
2023/06/04 00:05:38;;;;;;;3.23;1.47;;;16.70;99.90;;;;;;5092234;28;20286;-64
2023/06/04 00:08:04;;;;;;;1.40;1.30;;;16.70;99.90;;;;;;5092329;28;20256;-64
2023/06/04 00:10:31;;;;;;;1.40;1.20;;;16.70;99.90;;;;;;5092541;28;20645;-64
2023/06/04 00:12:56;;;;;;;2.40;1.30;;;16.70;99.90;;;;;;5092398;28;20161;-63
2023/06/04 00:15:22;;;;;;;2.07;1.47;;;16.70;99.90;;;;;;5092214;28;20266;-63
2023/06/04 00:17:47;;;;;;;2.10;1.30;;;16.70;99.90;;;;;;5092121;28;20184;-64
2023/06/04 00:20:13;;;;;;;1.93;1.30;;;16.60;99.90;;;;;;5081371;28;20214;-64
2023/06/04 00:22:41;;;;;;;1.37;1.33;;;16.60;99.90;;;;;;5088754;28;20222;-64
2023/06/04 00:25:08;;;;;;;1.50;1.33;;;16.50;99.90;;;;;;5091785;28;20314;-64
2023/06/04 00:27:34;;;;;;;2.90;1.40;;;;;;;;;;5092203;28;20227;-64
2023/06/04 00:29:59;;;;;;;6.37;1.30;;;16.40;99.90;;;;;;5092305;28;20587;-63
2023/06/04 00:32:25;;;;;;;1.77;1.43;;;16.40;99.90;;;;;;5092150;28;20168;-63
2023/06/04 00:34:52;;;;;;;1.20;1.10;;;16.30;99.90;;;;;;5091846;28;20191;-64
2023/06/04 00:37:17;;;;;;;1.53;1.43;;;16.30;99.90;;;;;;5092108;28;20196;-64
2023/06/04 00:39:43;;;;;;;3.83;1.43;;;16.30;99.90;;;;;;5091915;28;20585;-62
2023/06/04 00:42:09;;;;;;;3.57;1.50;;;16.30;99.90;;;;;;5090440;28;20260;-64
2023/06/04 00:44:36;;;;;;;1.93;1.20;;;16.20;99.90;;;;;;5091912;28;20193;-64
2023/06/04 00:47:02;;;;;;;1.33;1.23;;;16.20;99.90;;;;;;5091628;28;20268;-63
2023/06/04 00:49:27;;;;;;;2.00;1.50;;;16.20;99.90;;;;;;5092035;28;20641;-64
2023/06/04 00:51:53;;;;;;;3.03;1.57;;;16.10;99.90;;;;;;5091873;28;20173;-64
2023/06/04 00:54:20;;;;;;;3.63;1.40;;;16.10;99.90;;;;;;5107468;28;20177;-64
2023/06/04 00:56:48;;;;;;;3.33;1.50;;;16.10;99.90;;;;;;5091667;28;20189;-64
2023/06/04 00:59:14;;;;;;;1.30;1.20;;;16.00;99.90;;;;;;5091743;28;20181;-64
2023/06/04 01:02:12;;;;;;;1.23;1.10;;;16.00;99.90;;;;;;5091808;28;20672;-64
2023/06/04 01:04:40;;;;;;;1.30;1.20;;;16.00;99.90;;;;;;5091305;28;20681;-64
2023/06/04 01:07:08;;;;;;;3.67;1.17;;;16.00;99.90;;;;;;5091566;28;20193;-63
2023/06/04 01:09:35;;;;;;;1.80;1.03;;;16.00;99.90;;;;;;5091602;28;20169;-63
2023/06/04 01:12:04;;;;;;;1.63;1.30;;;;;;;;;;5091730;28;20172;-64
2023/06/04 01:14:30;;;;;;;1.10;1.00;;;15.90;99.90;;;;;;5091297;28;20177;-64
2023/06/04 01:17:02;;;;;;;1.40;1.30;;;15.90;99.90;;;;;;5091492;28;20197;-64
2023/06/04 01:19:59;;;;;;;1.10;1.10;;;;;;;;;;5090285;28;20265;-64
2023/06/04 01:22:54;;;;;;;1.30;1.20;;;15.80;99.90;;;;;;5091456;28;20191;-63
2023/06/04 01:25:27;;;;;;;1.37;1.27;;;15.80;99.90;;;;;;5091352;28;20212;-64
2023/06/04 01:27:56;;;;;;;1.57;1.30;;;15.80;99.90;;;;;;5091261;28;20177;-64
2023/06/04 01:30:27;;;;;;;1.27;1.10;;;15.80;99.90;;;;;;5091494;28;20169;-63
2023/06/04 01:32:54;;;;;;;1.93;1.20;;;15.70;99.90;;;;;;5078579;28;20173;-64
2023/06/04 01:35:21;;;;;;;1.10;1.10;;;15.70;99.90;;;;;;5091232;28;20197;-63
2023/06/04 01:37:47;;;;;;;3.57;1.17;;;15.70;99.90;;;;;;5091500;28;20443;-63
2023/06/04 01:40:13;;;;;;;2.80;1.10;;;15.60;99.90;;;;;;5091299;28;20181;-64
2023/06/04 01:42:38;;;;;;;3.27;1.30;;;15.70;99.90;;;;;;5091480;28;20176;-64
2023/06/04 01:45:05;;;;;;;1.23;1.13;;;15.50;99.90;;;;;;5090787;28;20240;-64
2023/06/04 01:47:30;;;;;;;2.80;1.23;;;15.40;99.90;;;;;;5092090;28;20193;-64
2023/06/04 01:49:56;;;;;;;2.23;1.33;;;15.50;99.90;;;;;;5091839;28;20197;-64
2023/06/04 01:52:22;;;;;;;1.07;1.07;;;15.40;99.90;;;;;;5094288;28;20165;-64
2023/06/04 01:54:52;;;;;;;1.27;1.13;;;15.30;99.90;;;;;;5095346;28;20254;-64
2023/06/04 01:57:21;;;;;;;1.43;1.33;;;15.20;99.90;;;;;;5095584;28;20550;-64
2023/06/04 01:59:48;;;;;;;2.53;1.10;;;15.30;99.90;;;;;;5095055;28;20169;-63
2023/06/04 02:02:14;;;;;;;1.47;1.10;;;15.20;99.90;;;;;;5110856;28;20169;-63
2023/06/04 02:04:41;;;;;;;1.20;1.10;;;15.10;99.90;;;;;;5095029;28;20283;-63
2023/06/04 02:07:10;;;;;;;3.00;1.20;;;15.10;99.90;;;;;;5094795;28;20587;-64
2023/06/04 02:09:37;;;;;;;1.20;1.10;;;15.10;99.90;;;;;;5093498;28;20177;-63
2023/06/04 02:12:03;;;;;;;1.20;1.10;;;15.10;99.90;;;;;;5094815;28;20533;-63
2023/06/04 02:14:28;;;;;;;2.60;1.27;;;15.10;99.90;;;;;;5094639;28;20181;-63
2023/06/04 02:16:57;;;;;;;2.77;1.43;;;15.00;99.90;;;;;;5095147;28;20200;-64
2023/06/04 02:19:26;;;;;;;1.07;0.97;;;15.00;99.90;;;;;;5095201;28;20165;-64
2023/06/04 02:21:53;;;;;;;1.43;1.10;;;14.90;99.90;;;;;;5095081;28;20271;-63
2023/06/04 02:24:18;;;;;;;2.00;1.00;;;14.90;99.90;;;;;;5094310;28;20253;-63
2023/06/04 02:26:44;;;;;;;3.10;1.40;;;14.70;99.90;;;;;;5095303;28;20271;-63
2023/06/04 02:29:09;;;;;;;1.07;0.93;;;14.80;99.90;;;;;;5094701;28;20192;-63
2023/06/04 02:31:35;;;;;;;1.23;1.03;;;14.70;99.90;;;;;;5095038;28;20169;-64
2023/06/04 02:34:00;;;;;;;0.90;0.90;;;14.70;99.90;;;;;;5094008;28;21133;-64
2023/06/04 02:36:26;;;;;;;1.67;0.93;;;14.60;99.90;;;;;;5094799;28;20226;-64
2023/06/04 02:38:52;;;;;;;1.27;1.10;;;14.70;99.90;;;;;;5094484;28;20176;-64
2023/06/04 02:41:17;;;;;;;3.30;1.17;;;14.60;99.90;;;;;;5094378;28;20607;-64
2023/06/04 02:43:45;;;;;;;1.70;1.20;;;;;;;;;;5093933;28;20180;-62
2023/06/04 02:46:10;;;;;;;2.53;1.30;;;14.60;99.90;;;;;;5084445;28;20255;-64
2023/06/04 02:48:36;;;;;;;2.43;1.17;;;14.50;99.90;;;;;;5090283;28;20169;-64
2023/06/04 02:51:01;;;;;;;1.83;1.10;;;14.50;99.90;;;;;;5094377;28;20189;-64
2023/06/04 02:53:27;;;;;;;1.33;1.00;;;14.50;99.90;;;;;;5091143;28;20173;-63
2023/06/04 02:55:52;;;;;;;1.47;1.00;;;14.40;99.90;;;;;;5083178;28;20201;-64
2023/06/04 02:58:18;;;;;;;0.87;0.87;;;14.30;99.90;;;;;;5093592;28;20209;-64
2023/06/04 03:00:45;;;;;;;1.20;1.20;;;14.20;99.90;;;;;;5094062;28;20226;-65
2023/06/04 03:03:10;;;;;;;1.30;1.20;;;14.20;99.90;;;;;;5093289;28;20188;-64
2023/06/04 03:05:36;;;;;;;1.40;1.30;;;14.20;99.90;;;;;;5093230;28;20680;-64
2023/06/04 03:08:03;;;;;;;1.73;0.97;;;14.10;99.90;;;;;;5093660;28;20176;-63
2023/06/04 03:10:29;;;;;;;1.30;1.00;;;14.10;99.90;;;;;;5093778;28;20173;-63
2023/06/04 03:12:55;;;;;;;5.03;1.10;;;14.00;99.90;;;;;;5093546;28;20196;-63
2023/06/04 03:15:21;;;;;;;1.20;1.10;;;14.00;99.90;;;;;;5093231;28;20277;-63
2023/06/04 03:17:46;;;;;;;2.00;0.83;;;14.00;99.90;;;;;;5093533;28;20188;-64
2023/06/04 03:20:12;;;;;;;1.53;1.00;;;14.10;99.90;;;;;;5093375;28;20185;-64
2023/06/04 03:22:38;;;;;;;0.83;0.83;;;14.00;99.90;;;;;;5093434;28;20181;-63
2023/06/04 03:25:04;;;;;;;1.23;1.17;;;13.90;99.90;;;;;;5092136;28;20283;-63
2023/06/04 03:27:32;;;;;;;2.40;0.97;;;14.00;99.90;;;;;;5093230;28;20174;-64
2023/06/04 03:29:58;;;;;;;2.90;1.03;;;14.00;99.90;;;;;;5093286;28;20177;-63
2023/06/04 03:32:23;;;;;;;1.90;1.07;;;13.90;99.90;;;;;;5093197;28;20607;-64
2023/06/04 03:34:49;;;;;;;4.10;0.90;;;13.90;99.90;;;;;;5092997;28;20201;-64
2023/06/04 03:37:16;;;;;;;2.47;1.03;;;13.80;99.90;;;;;;5092961;28;20209;-64
2023/06/04 03:39:42;;;;;;;2.30;1.00;;;13.80;99.90;;;;;;5093138;28;20263;-64
2023/06/04 03:42:07;;;;;;;1.13;1.13;;;13.80;99.90;;;;;;5092768;28;20260;-64
2023/06/04 03:44:33;;;;;;;1.80;1.10;;;13.80;99.90;;;;;;5092834;28;20217;-64
2023/06/04 03:46:59;;;;;;;2.73;1.00;;;13.80;99.90;;;;;;5092543;28;20210;-64
2023/06/04 03:49:25;;;;;;;1.00;1.00;;;13.80;99.90;;;;;;5092788;28;20172;-63
2023/06/04 03:51:50;;;;;;;0.90;0.90;;;13.80;99.90;;;;;;5092837;28;20180;-63
2023/06/04 03:54:16;;;;;;;1.80;1.13;;;13.80;99.90;;;;;;5092659;28;20177;-63
2023/06/04 03:56:44;;;;;;;1.17;1.10;;;13.70;99.90;;;;;;5092658;28;20197;-63
2023/06/04 03:59:09;;;;;;;2.13;1.20;;;13.80;99.90;;;;;;5092589;28;20177;-64
2023/06/04 04:01:35;;;;;;;1.10;1.00;;;13.80;99.90;;;;;;5092719;28;20208;-64
2023/06/04 04:04:00;;;;;;;0.80;0.80;;;13.90;99.90;;;;;;5092162;28;20664;-63
2023/06/04 04:06:26;;;;;;;1.33;0.90;;;13.90;99.90;;;;;;5092572;28;20196;-63
2023/06/04 04:08:53;;;;;;;1.50;1.20;;;13.90;99.90;;;;;;5092583;28;20184;-64
2023/06/04 04:11:18;;;;;;;2.00;1.00;;;13.90;99.90;;;;;;5092550;28;20621;-63
2023/06/04 04:13:45;;;;;;;1.07;0.87;;;14.00;99.90;;;;;;5091978;28;20169;-64
2023/06/04 04:16:11;;;;;;;0.60;0.60;;;13.90;99.90;;;;;;5092296;28;20230;-64
2023/06/04 04:18:37;;;;;;;1.47;1.20;;;13.90;99.90;;;;;;5092403;28;20165;-64
2023/06/04 04:21:04;;;;;;;3.30;0.90;;;14.00;99.90;;;;;;5090961;28;20185;-64
2023/06/04 04:23:31;;;;;;;1.90;0.80;;;14.00;99.90;;;;;;5092373;28;20169;-64
2023/06/04 04:25:59;;;;;;;2.73;1.00;;;14.00;99.90;;;;;;5091761;28;20205;-64
2023/06/04 04:28:28;;;;;;;1.00;0.90;;;14.10;99.90;;;;;;5092271;28;20196;-63
2023/06/04 04:30:57;;;;;;;1.00;0.90;;;14.10;99.90;;;;;;5103830;22;20153;-67
2023/06/04 04:33:26;;;;;;;1.47;1.00;;;14.10;99.90;;;;;;5072999;28;20177;-67
2023/06/04 04:35:53;;;;;;;1.10;0.97;;;14.20;99.90;;;;;;5054148;28;20217;-67
2023/06/04 04:38:23;;;;;;;0.83;0.83;;;14.20;99.90;;;;;;5072679;28;20177;-68
2023/06/04 04:40:52;;;;;;;1.63;1.00;;;14.30;99.90;;;;;;5071788;28;20208;-67
2023/06/04 04:43:28;;;;;;;1.63;1.30;;;14.40;99.90;;;;;;5072570;28;20701;-67
2023/06/04 04:45:53;;;;;;;1.90;1.03;;;14.40;99.90;;;;;;5072173;28;20208;-67
2023/06/04 04:48:19;;;;;;;0.70;0.70;;;14.50;99.90;;;;;;5071699;28;20170;-67
2023/06/04 04:50:45;;;;;;;0.83;0.77;;;14.70;99.90;;;;;;5071762;28;20177;-68
2023/06/04 04:53:10;;;;;;;1.20;0.90;;;15.20;99.90;;;;;;5072016;28;20172;-66
2023/06/04 04:55:36;;;;;;;1.47;1.00;;;15.50;99.90;;;;;;5071319;28;20194;-67
2023/06/04 04:58:01;;;;;;;1.03;0.80;;;15.60;99.90;;;;;;5071677;28;20176;-67
2023/06/04 05:00:27;;;;;;;1.67;0.87;;;15.50;99.90;;;;;;5071653;28;20263;-68
2023/06/04 05:02:53;;;;;;;1.10;1.00;;;15.30;99.90;;;;;;5071719;28;20231;-66
2023/06/04 05:05:18;;;;;;;1.10;1.00;;;15.20;99.90;;;;;;5071554;28;20202;-67
2023/06/04 05:07:44;;;;;;;2.30;1.20;;;15.20;99.90;;;;;;5071821;28;20180;-67
2023/06/04 05:10:10;;;;;;;2.10;1.00;;;15.20;99.90;;;;;;5071132;28;20174;-67
2023/06/04 05:12:35;;;;;;;1.97;1.03;;;15.30;99.90;;;;;;5071542;28;20626;-67
2023/06/04 05:15:01;;;;;;;2.17;1.90;;;15.40;99.90;;;;;;5070979;28;20178;-67
2023/06/04 05:17:29;;;;;;;1.00;0.87;;;15.50;99.90;;;;;;5071124;28;20668;-68
2023/06/04 05:20:04;;;;;;;1.07;0.97;;;15.50;99.90;;;;;;5071558;28;20230;-67
2023/06/04 05:22:32;;;;;;;1.67;1.20;;;15.60;99.90;;;;;;5071665;28;20177;-67
2023/06/04 05:24:59;;;;;;;0.90;0.90;;;15.70;99.90;;;;;;5071300;28;20684;-67
2023/06/04 05:27:25;;;;;;;0.83;0.80;;;15.90;99.90;;;;;;5056211;28;20582;-67
2023/06/04 05:29:51;;;;;;;1.07;0.97;;;15.80;99.90;;;;;;5074914;28;20182;-67
2023/06/04 05:32:17;;;;;;;1.60;1.00;;;15.80;99.90;;;;;;5074998;28;20268;-67
2023/06/04 05:34:43;;;;;;;1.07;1.00;;;15.80;99.90;;;;;;5075864;28;20181;-67
2023/06/04 05:37:09;;;;;;;1.07;1.07;;;15.80;99.90;;;;;;5075713;28;20246;-67
2023/06/04 05:39:35;;;;;;;1.10;1.00;;;15.90;99.90;;;;;;5076093;28;20181;-66
2023/06/04 05:42:01;;;;;;;1.53;1.07;;;15.90;99.90;;;;;;5075375;28;20704;-67
2023/06/04 05:44:27;;;;;;;2.03;1.13;;;16.10;99.90;;;;;;5075527;28;20340;-66
2023/06/04 05:46:52;;;;;;;1.40;1.00;;;16.10;99.90;;;;;;5075311;28;20193;-67
2023/06/04 05:49:19;;;;;;;1.20;1.10;;;16.40;99.90;;;;;;5057370;28;20185;-66
2023/06/04 05:51:45;;;;;;;3.97;1.60;;;16.50;99.90;;;;;;5056964;28;20170;-67
2023/06/04 05:54:10;;;;;;;2.10;1.10;;;16.30;99.90;;;;;;5075362;28;20199;-67
2023/06/04 05:56:36;;;;;;;1.17;0.90;;;16.40;99.90;;;;;;5057432;28;20756;-67
2023/06/04 05:59:02;;;;;;;1.07;1.00;;;16.40;99.90;;;;;;5075546;28;20654;-67
2023/06/04 06:01:28;;;;;;;1.57;1.20;;;16.40;99.90;;;;;;5075086;28;20649;-67
2023/06/04 06:03:54;;;;;;;1.10;1.10;;;16.50;99.90;;;;;;5061862;28;20177;-67
2023/06/04 06:06:20;;;;;;;1.10;1.00;;;16.70;99.90;;;;;;5075016;28;20228;-67
2023/06/04 06:08:46;;;;;;;1.77;1.00;;;16.70;99.90;;;;;;5057274;28;20702;-67
2023/06/04 06:11:12;;;;;;;2.33;1.33;;;16.80;99.90;;;;;;5074979;28;20174;-67
2023/06/04 06:13:37;;;;;;;1.20;0.80;;;16.90;99.90;;;;;;5074442;28;20173;-67
2023/06/04 06:16:04;;;;;;;0.80;0.80;;;17.00;99.90;;;;;;5074908;28;20584;-66
2023/06/04 06:18:30;;;;;;;1.63;1.00;;;17.10;99.90;;;;;;5075518;28;20716;-66
2023/06/04 06:20:56;;;;;;;1.67;1.30;;;17.00;99.90;;;;;;5058009;28;20179;-66
2023/06/04 06:23:22;;;;;;;0.93;0.90;;;17.10;99.90;;;;;;5075282;28;20167;-67
2023/06/04 06:25:49;;;;;;;1.40;1.00;;;17.20;99.90;;;;;;5075333;28;20604;-66
2023/06/04 06:28:15;;;;;;;1.20;1.10;;;17.40;99.90;;;;;;5074757;28;20627;-67
2023/06/04 06:30:40;;;;;;;1.87;1.60;;;17.40;99.90;;;;;;5075039;28;20182;-66
2023/06/04 06:33:06;;;;;;;1.10;1.10;;;17.40;99.90;;;;;;5074924;28;20209;-66
2023/06/04 06:35:32;;;;;;;0.70;0.70;;;17.50;99.80;;;;;;5074987;28;20223;-66
2023/06/04 06:37:57;;;;;;;1.33;1.07;;;17.60;99.50;;;;;;5074386;28;20199;-66
2023/06/04 06:40:23;;;;;;;2.63;0.93;;;17.60;99.00;;;;;;5074671;28;20179;-67
2023/06/04 06:42:50;;;;;;;1.13;1.07;;;17.70;99.90;;;;;;5074947;28;20207;-66
2023/06/04 06:45:15;;;;;;;1.13;1.03;;;17.70;99.70;;;;;;5056312;28;20201;-66
2023/06/04 06:47:41;;;;;;;0.83;0.83;;;17.80;99.90;;;;;;5073902;28;20187;-66
2023/06/04 06:50:07;;;;;;;1.10;1.00;;;17.80;99.20;;;;;;5074147;28;20181;-67
2023/06/04 06:52:32;;;;;;;2.87;1.10;;;17.80;98.40;;;;;;5074753;28;20693;-66
2023/06/04 06:54:58;;;;;;;1.33;1.20;;;17.90;97.30;;;;;;5074220;28;20260;-66
2023/06/04 06:57:24;;;;;;;1.33;1.10;;;17.90;98.10;;;;;;5048145;28;20263;-67
2023/06/04 06:59:51;;;;;;;0.90;0.90;;;18.10;97.70;;;;;;5061658;28;20327;-66
2023/06/04 07:02:17;;;;;;;1.43;0.97;;;18.20;97.80;;;;;;5059269;28;20181;-66
2023/06/04 07:04:43;;;;;;;1.20;1.10;;;18.20;97.30;;;;;;5077484;28;20196;-66
2023/06/04 07:07:08;;;;;;;1.20;1.10;;;18.20;95.70;;;;;;5076695;28;20197;-67
2023/06/04 07:09:34;;;;;;;3.20;1.10;;;18.20;96.50;;;;;;5077079;28;20576;-67
2023/06/04 07:12:00;;;;;;;1.27;1.10;;;18.20;95.80;;;;;;5077154;28;20169;-67
2023/06/04 07:14:26;;;;;;;3.43;1.20;;;18.30;95.50;;;;;;5076456;28;20665;-66
2023/06/04 07:16:51;;;;;;;2.13;1.30;;;18.40;96.90;;;;;;5075491;28;20700;-67
2023/06/04 07:19:17;;;;;;;1.40;1.08;;;18.60;95.10;;;;;;5074788;28;20257;-66
2023/06/04 07:21:43;;;;;;;0.90;0.90;;;18.70;95.20;;;;;;5056853;28;20170;-66
2023/06/04 07:24:08;;;;;;;1.97;1.10;;;18.80;94.50;;;;;;5074004;28;20697;-66
2023/06/04 07:26:34;;;;;;;1.27;1.13;;;18.70;92.50;;;;;;5056150;28;20182;-67
2023/06/04 07:29:00;;;;;;;1.40;1.10;;;18.70;92.50;;;;;;5056487;28;20174;-66
2023/06/04 07:31:25;;;;;;;1.40;0.90;;;18.70;92.30;;;;;;5074424;28;20186;-66
2023/06/04 07:33:51;;;;;;;1.20;1.10;;;18.50;92.20;;;;;;5074331;28;20626;-66
2023/06/04 07:36:17;;;;;;;1.80;1.03;;;18.60;92.20;;;;;;5074220;28;20207;-66
2023/06/04 07:38:42;;;;;;;1.50;1.40;;;18.70;93.70;;;;;;5074214;28;20174;-67
2023/06/04 07:41:08;;;;;;;2.90;1.13;;;18.70;94.70;;;;;;5074623;28;20247;-67
2023/06/04 07:43:35;;;;;;;1.10;0.97;;;19.00;94.70;;;;;;5074596;28;20181;-66
2023/06/04 07:46:01;;;;;;;1.08;1.08;;;19.10;95.30;;;;;;5073426;28;20201;-67
2023/06/04 07:48:30;;;;;;;1.10;1.10;;;19.20;95.00;;;;;;5072649;28;20169;-67
2023/06/04 07:50:57;;;;;;;1.10;1.02;;;19.20;94.30;;;;;;5073384;28;20630;-67
2023/06/04 07:53:23;;;;;;;2.42;1.27;;;19.50;94.70;;;;;;5073899;28;20261;-67
2023/06/04 07:55:48;;;;;;;1.95;1.33;;;19.40;93.60;;;;;;5073769;28;20225;-67
2023/06/04 07:58:14;;;;;;;2.60;1.48;;;19.70;94.00;;;;;;5073891;28;20184;-68
2023/06/04 08:00:40;;;;;;;1.20;1.10;;;19.60;94.00;;;;;;5074718;28;20577;-66
2023/06/04 08:03:06;;;;;;;2.28;1.10;;;19.60;95.10;;;;;;5074001;28;20165;-67
2023/06/04 08:05:31;;;;;;;1.40;1.30;;;19.90;94.20;;;;;;5073425;28;20564;-67
2023/06/04 08:07:57;;;;;;;1.35;1.25;;;19.90;94.40;;;;;;5073907;28;20184;-67
2023/06/04 08:10:22;;;;;;;1.27;1.17;;;19.80;94.50;;;;;;5073562;28;20251;-67
2023/06/04 08:12:48;;;;;;;4.05;1.40;;;19.80;94.10;;;;;;5073424;28;20172;-67
2023/06/04 08:15:14;;;;;;;1.40;1.30;;;19.70;95.30;;;;;;5072030;28;20269;-67
2023/06/04 08:17:40;;;;;;;1.15;1.10;;;19.80;94.90;;;;;;5063299;28;20265;-67
2023/06/04 08:20:06;;;;;;;1.30;1.20;;;19.90;95.20;;;;;;5072825;28;20262;-66
2023/06/04 08:22:32;;;;;;;4.28;1.35;;;20.00;95.10;;;;;;5073753;28;20184;-66
2023/06/04 08:24:57;;;;;;;1.17;1.00;;;20.00;96.10;;;;;;5073447;28;20190;-66
2023/06/04 08:27:23;;;;;;;1.63;1.23;;;20.00;96.20;;;;;;5073881;28;20277;-66
2023/06/04 08:29:48;;;;;;;1.92;1.20;;;20.00;95.60;;;;;;5072891;28;20166;-66
2023/06/04 08:32:14;;;;;;;3.42;1.10;;;20.10;95.60;;;;;;5073685;28;20190;-65
2023/06/04 08:34:40;;;;;;;1.95;1.25;;;20.10;96.20;;;;;;5073970;28;20544;-66
2023/06/04 08:37:06;;;;;;;3.25;1.40;;;20.10;95.70;;;;;;5074930;28;20239;-66
2023/06/04 08:39:33;;;;;;;1.27;1.25;;;20.30;95.80;;;;;;5075719;28;20192;-67
2023/06/04 08:42:07;;;;;;;1.55;1.45;;;20.80;96.80;;;;;;5074085;28;20174;-67
2023/06/04 08:44:33;;;;;;;1.45;1.35;;;21.00;95.70;;;;;;5072950;28;20203;-67
2023/06/04 08:47:04;;;;;;;1.60;1.40;;;21.00;96.10;;;;;;5068699;28;20191;-67
2023/06/04 08:49:35;;;;;;;1.67;1.30;;;21.10;94.70;;;;;;5075601;28;20169;-66
2023/06/04 08:52:01;;;;;;;2.05;1.30;;;20.80;94.90;;;;;;5073529;28;20180;-67
2023/06/04 08:54:27;;;;;;;3.03;1.38;;;20.80;95.30;;;;;;5085688;28;20168;-67
2023/06/04 08:56:56;;;;;;;1.88;1.40;;;20.80;95.50;;;;;;5076389;28;20558;-66
2023/06/04 08:59:22;;;;;;;2.17;1.45;;;21.10;95.40;;;;;;5075059;28;20266;-66
2023/06/04 09:01:48;;;;;;;1.35;1.25;;;21.10;94.60;;;;;;5077776;28;20602;-67
2023/06/04 09:04:14;;;;;;;1.88;1.45;;;21.30;96.60;;;;;;5075649;28;20268;-65
2023/06/04 09:06:41;;;;;;;1.60;1.27;;;21.50;94.50;;;;;;5049434;28;20233;-66
2023/06/04 09:09:12;;;;;;;1.92;1.25;;;21.90;94.50;;;;;;5076631;28;20536;-67
2023/06/04 09:11:52;;;;;;;2.15;1.67;;;21.80;93.20;;;;;;5073911;28;20227;-66
2023/06/04 09:14:17;;;;;;;2.72;1.65;;;21.70;93.30;;;;;;5087606;28;20252;-65
2023/06/04 09:16:47;;;;;;;1.92;1.33;;;21.80;92.70;;;;;;5079367;28;20200;-67
2023/06/04 09:19:13;;;;;;;1.27;1.20;;;22.00;92.50;;;;;;5074718;28;20248;-67
2023/06/04 09:21:51;;;;;;;1.27;1.27;;;22.20;93.30;;;;;;5071814;28;20170;-67
2023/06/04 09:24:21;;;;;;;4.88;1.30;;;21.70;92.40;;;;;;5081014;28;20220;-66
2023/06/04 09:26:46;;;;;;;2.38;1.40;;;21.60;92.50;;;;;;5075553;28;20213;-67
2023/06/04 09:29:12;;;;;;;1.60;1.50;;;21.80;91.60;;;;;;5066244;28;20173;-66
2023/06/04 09:31:39;;;;;;;2.72;1.60;;;21.80;92.90;;;;;;5090251;28;20181;-66
2023/06/04 09:34:06;;;;;;;1.42;1.20;;;21.90;92.60;;;;;;5075466;28;20177;-66
2023/06/04 09:36:35;;;;;;;1.25;1.15;;;22.10;92.30;;;;;;5088833;28;20185;-66
2023/06/04 09:39:03;;;;;;;4.13;1.13;;;22.30;92.50;;;;;;5081389;28;20181;-66
2023/06/04 09:41:28;;;;;;;1.15;1.13;;;22.40;92.40;;;;;;5076356;28;20251;-66
2023/06/04 09:44:05;;;;;;;2.22;1.38;;;22.20;90.60;;;;;;5077373;28;20594;-65
2023/06/04 09:46:31;;;;;;;1.40;1.30;;;22.30;91.00;;;;;;5083526;28;20279;-65
2023/06/04 09:49:04;;;;;;;1.60;1.50;;;22.60;88.20;;;;;;5078650;28;20638;-66
2023/06/04 09:51:30;;;;;;;1.80;1.70;;;22.80;89.50;;;;;;5074790;28;20598;-67
2023/06/04 09:53:58;;;;;;;1.40;1.27;;;22.70;91.40;;;;;;5074216;28;20220;-66
2023/06/04 09:56:24;;;;;;;6.97;1.65;;;22.40;88.90;;;;;;5073532;28;20190;-67
2023/06/04 09:58:53;;;;;;;2.97;1.60;;;22.70;89.60;;;;;;5074042;28;20166;-68
2023/06/04 10:01:20;;;;;;;1.35;1.25;;;22.80;83.80;;;;;;5072155;28;20177;-68
2023/06/04 10:03:48;;;;;;;1.55;1.45;;;23.00;83.60;;;;;;5060462;28;20162;-66
2023/06/04 10:06:18;;;;;;;1.27;1.25;;;23.10;85.90;;;;;;5061717;28;20189;-69
2023/06/04 10:08:45;;;;;;;2.80;1.30;;;23.00;83.60;;;;;;5074320;28;20165;-67
2023/06/04 10:11:12;;;;;;;3.75;1.40;;;23.30;87.10;;;;;;5073148;28;20182;-66
2023/06/04 10:13:55;;;;;;;1.40;1.30;;;23.20;83.60;;;;;;5058739;28;20537;-68
2023/06/04 10:16:23;;;;;;;1.60;1.50;;;23.60;84.90;;;;;;5056833;28;20294;-68
2023/06/04 10:18:50;;;;;;;2.35;1.27;;;23.90;77.80;;;;;;5038831;28;20669;-66
2023/06/04 10:21:17;;;;;;;2.90;1.30;;;23.70;78.30;;;;;;5060491;28;20170;-68
2023/06/04 10:23:44;;;;;;;2.20;1.25;;;23.50;80.50;;;;;;5058407;28;20170;-68
2023/06/04 10:26:16;;;;;;;1.52;1.42;;;23.80;78.70;;;;;;5071468;28;20203;-68
2023/06/04 10:28:42;;;;;;;2.45;1.30;;;23.40;76.00;;;;;;5075790;28;20153;-69
2023/06/04 10:31:12;;;;;;;1.20;1.20;;;23.90;75.60;;;;;;5096846;28;20173;-69
2023/06/04 10:33:40;;;;;;;1.45;1.33;;;24.10;73.20;;;;;;5093980;22;20252;-69
2023/06/04 10:36:22;;;;;;;1.20;1.10;;;24.30;64.30;;;;;;5086878;28;20189;-67
2023/06/04 10:38:50;;;;;;;1.38;1.27;;;24.20;65.90;;;;;;5080938;28;20768;-69
2023/06/04 10:41:17;;;;;;;1.40;1.30;;;24.70;63.10;;;;;;5057452;28;20208;-69
2023/06/04 10:43:49;;;;;;;1.65;1.40;;;24.60;59.50;;;;;;5086303;28;20181;-69
2023/06/04 10:46:16;;;;;;;1.65;1.52;;;24.40;59.10;;;;;;5083147;28;20204;-68
2023/06/04 10:48:48;;;;;;;1.45;1.38;;;24.60;62.60;;;;;;5073220;28;20178;-68
2023/06/04 10:51:13;;;;;;;1.83;0.98;;;24.90;60.20;;;;;;5084851;28;20644;-68
2023/06/04 10:53:39;;;;;;;1.58;1.48;;;24.90;56.40;;;;;;5085527;28;20177;-69
2023/06/04 10:56:05;;;;;;;1.38;1.27;;;25.00;53.40;;;;;;5063970;28;20530;-69
2023/06/04 10:58:34;;;;;;;1.55;1.45;;;25.10;53.00;;;;;;5074223;28;20227;-69
2023/06/04 11:01:00;;;;;;;1.45;1.33;;;25.30;51.30;;;;;;5073557;28;20518;-69
2023/06/04 11:03:38;;;;;;;2.80;1.27;;;25.30;53.40;;;;;;5080978;28;20176;-69
2023/06/04 11:06:16;;;;;;;1.40;1.13;;;24.80;51.60;;;;;;5078175;28;20568;-69
2023/06/04 11:08:42;;;;;;;2.50;1.30;;;25.00;53.00;;;;;;5068816;28;20169;-69
2023/06/04 11:11:12;;;;;;;1.88;1.60;;;24.90;52.00;;;;;;5082260;28;20170;-69
2023/06/04 11:13:38;;;;;;;2.75;1.55;;;25.10;54.00;;;;;;5073106;28;20553;-68
2023/06/04 11:16:17;;;;;;;1.50;1.40;;;25.30;51.50;;;;;;5075439;28;20197;-68
2023/06/04 11:18:44;;;;;;;1.75;1.50;;;25.50;53.00;;;;;;5088879;28;20216;-69
2023/06/04 11:21:14;;;;;;;1.77;1.50;;;25.60;50.50;;;;;;5081136;28;20258;-69
2023/06/04 11:23:40;;;;;;;2.67;1.25;;;25.50;51.50;;;;;;5076018;28;20499;-69
2023/06/04 11:26:06;;;;;;;2.97;1.35;;;25.30;51.20;;;;;;5073729;28;20204;-69
2023/06/04 11:28:32;;;;;;;1.95;1.80;;;25.30;53.00;;;;;;5086962;28;20165;-69
2023/06/04 11:30:57;;;;;;;2.05;1.50;;;25.70;51.00;;;;;;5078675;28;20236;-69
2023/06/04 11:33:23;;;;;;;1.95;1.50;;;25.60;51.00;;;;;;5072489;28;20194;-69
2023/06/04 11:35:48;;;;;;;1.70;1.60;;;25.10;50.30;;;;;;5054665;28;20196;-69
2023/06/04 11:38:14;;;;;;;1.77;1.40;;;24.80;50.30;;;;;;5080980;28;20193;-70
2023/06/04 11:40:39;;;;;;;1.85;1.73;;;25.10;52.10;;;;;;5072614;28;20261;-70
2023/06/04 11:43:05;;;;;;;1.60;1.50;;;25.30;51.80;;;;;;5082566;28;20173;-69
2023/06/04 11:45:32;;;;;;;1.90;1.60;;;25.50;51.60;;;;;;5083009;28;20206;-70
2023/06/04 11:47:57;;;;;;;1.70;1.50;;;25.80;51.70;;;;;;5079230;28;20174;-69
2023/06/04 11:50:26;;;;;;;1.50;1.40;;;25.60;50.00;;;;;;5074598;28;20170;-69
2023/06/04 11:52:53;;;;;;;1.60;1.50;;;25.70;50.70;;;;;;5078469;28;20538;-69
2023/06/04 11:55:22;;;;;;;2.97;1.60;;;25.90;49.30;;;;;;5070876;28;20537;-69
2023/06/04 11:57:48;;;;;;;1.50;1.38;;;25.90;50.00;;;;;;5051499;28;20670;-69
2023/06/04 12:00:15;;;;;;;2.30;2.10;;;26.30;49.90;;;;;;5070480;28;20200;-70
2023/06/04 12:02:55;;;;;;;1.55;1.40;;;27.10;50.70;;;;;;5079103;28;20219;-70
2023/06/04 12:05:23;;;;;;;1.60;1.50;;;25.60;49.60;;;;;;5061049;28;20284;-70
2023/06/04 12:07:51;;;;;;;1.75;1.65;;;24.70;51.30;;;;;;5072485;28;20174;-69
2023/06/04 12:10:20;;;;;;;5.18;1.80;;;25.30;51.70;;;;;;5073266;28;20180;-70
2023/06/04 12:12:46;;;;;;;2.17;1.50;;;25.40;51.40;;;;;;5072100;28;20653;-69
2023/06/04 12:15:19;;;;;;;1.38;1.20;;;25.60;53.70;;;;;;5084977;28;20211;-69
2023/06/04 12:17:51;;;;;;;1.45;1.35;;;26.00;51.70;;;;;;5074339;28;20173;-69
2023/06/04 12:20:17;;;;;;;1.48;1.38;;;26.30;49.80;;;;;;5072584;28;20185;-70
2023/06/04 12:22:46;;;;;;;2.13;1.42;;;26.50;54.80;;;;;;5074522;28;20173;-69
2023/06/04 12:25:23;;;;;;;1.85;1.58;;;26.80;53.80;;;;;;5054839;28;20569;-69
2023/06/04 12:27:48;;;;;;;2.33;2.13;;;27.00;49.60;;;;;;5054907;28;20251;-67
2023/06/04 12:30:15;;;;;;;1.80;1.70;;;27.10;49.90;;;;;;5074286;28;20257;-67
2023/06/04 12:32:42;;;;;;;1.52;1.42;;;26.70;52.30;;;;;;5092072;28;20545;-67
2023/06/04 12:35:07;;;;;;;2.72;1.70;;;26.10;52.10;;;;;;5092005;28;20536;-67
2023/06/04 12:37:33;;;;;;;1.67;1.58;;;26.60;52.80;;;;;;5092436;28;20165;-68
2023/06/04 12:39:59;;;;;;;1.88;1.67;;;27.10;50.40;;;;;;5092543;28;20235;-67
2023/06/04 12:42:24;;;;;;;2.80;2.33;;;27.40;50.80;;;;;;5092219;28;20169;-68
2023/06/04 12:44:50;;;;;;;1.95;1.55;;;27.20;49.80;;;;;;5090591;28;20189;-66
2023/06/04 12:47:16;;;;;;;3.35;2.63;;;26.90;50.80;;;;;;5092400;28;20177;-68